Terminal Aerodrome Forecast
Issued by NWS

Current Version | Previous Version | Text Only | Print | Product List | Glossary Off
Versions: 1 2 3 4 5 6 7 8 9 10 11 12 13 14 15 16 17 18 19 20 21

000
FTUS41 KILN 142044 AAA
TAFLUK
TAF AMD
KLUK 142044Z 1421/1518 01003KT P6SM SCT035 BKN200
     FM150200 VRB03KT P6SM OVC150
     FM151000 22004KT P6SM SCT050 OVC150
     FM151400 23008KT P6SM BKN050
     FM151600 25012G18KT P6SM BKN040=

USA.gov is the U.S. government's official web portal to all federal, state and local government web resources and services.